Sneads, FL (32460)

10:06 AM CDT on August 22, 2014 (GMT -0500)
Cypress | Change Station
CLOSE
Current Station
Personal Weather Station
Location: Marianna, FL
Elevation: 138 ft
Nearby Weather Stations
Active Advisory: Excessive Heat Warning, Heat Advisory Active Notice: Record Report

Elev 138 ft 30.67 °N, 85.07 °W | Updated 4 seconds ago

Clear
Clear
92.1 °F
Feels Like 112 °F
N
2.1
Wind Variable Wind from NNW
Gusts 7.0 mph

Today
High -- | Low -- °F
--% Chance of Precip.
Yesterday
High -- | Low -- °F
Precip. -- in
6:10 AM 7:14 PM
Waning Crescent, 8% visible
Pressure 30.09 in
Visibility 10.0 miles
Clouds Clear
Heat Index 112 °F
Dew Point 80 °F
Humidity 69%
Rainfall 0.00 in
Snow Depth Not available.
UV 7 out of 12
Pollen 7.00 out of 12
Air Quality Not available.
Flu Activity Not available.
METAR KMAI 221453Z AUTO 33004KT 10SM CLR 32/26 A3010 RMK AO2 SLP190 T03170256 51007

More Conditions Fewer Conditions

Pressure 30.09 in
Visibility 10.0 miles
Clouds Clear
Heat Index 112 °F
Dew Point 80 °F
Humidity 69%
Rainfall 0.00 in
Snow Depth Not available.
UV 7 out of 12
Pollen 7.00 out of 12
Air Quality Not available.
Flu Activity Not available.
METAR KMAI 221453Z AUTO 33004KT 10SM CLR 32/26 A3010 RMK AO2 SLP190 T03170256 51007

More Conditions Fewer Conditions

10-Day Weather Forecast

Almanac

Astronomy

Aug. 22, 2014 Rise Set
Actual Time 6:10 AM CDT 7:14 PM CDT
Civil Twilight 5:45 AM CDT 7:39 PM CDT
Nautical Twilight 5:15 AM CDT 8:08 PM CDT
Astronomical Twilight 4:45 AM CDT 8:39 PM CDT
Moon 3:37 AM CDT 5:18 PM CDT
Length of Visible Light 13h 53m
Length of Day
13h 04m
Tomorrow will be 1m 42s shorter.
Waning Crescent, 8% of the Moon is Illuminated
Today
Waning Crescent
Aug 25
New
Sep 2
First Quarter
Sep 8
Full
Sep 15
Last Quarter

Today's Extremes

State Highs State Lows

Community

WunderPhotos

Upload Photos

1,746,185 photos uploaded!

WunderBlogs® & News

Nearby

Snow Depth

Station Depth Elevation
No new snow has been reported.

Earthquake Activity

City Distance Mag. Time & Date
No recent earthquake activity has been reported nearby.
Minimum magnitude displayed is 2.5.

Coastal Water Temperatures

Place Temperature
No Stations Reporting

Nearby Weather Stations